Time,TemperatureF,DewpointF,PressureIn,WindDirection,WindDirectionDegrees,WindSpeedMPH,WindSpeedGustMPH,Humidity,HourlyPrecipIn,Conditions,Clouds,dailyrainin,SoftwareType,DateUTC
2013-08-04 00:03:00,86.0,58.2,27.20,South,174,0.0,0.0,39,0.00,,---,0.00,VWS V13.01,2013-08-04 07:03:00,
2013-08-04 00:08:00,86.0,58.2,27.20,South,174,0.0,0.0,39,0.00,,---,0.00,VWS V13.01,2013-08-04 07:08:00,
2013-08-04 00:13:00,85.8,58.0,27.20,South,174,0.0,0.0,39,0.00,,---,0.00,VWS V13.01,2013-08-04 07:13:00,
2013-08-04 00:18:00,85.6,57.9,27.20,South,174,0.0,0.0,39,0.00,,---,0.00,VWS V13.01,2013-08-04 07:18:00,
2013-08-04 00:23:00,85.5,57.7,27.20,South,174,0.0,0.0,39,0.00,,---,0.00,VWS V13.01,2013-08-04 07:23:00,
2013-08-04 00:28:00,85.3,57.5,27.20,South,174,0.0,0.0,39,0.00,,---,0.00,VWS V13.01,2013-08-04 07:28:00,
2013-08-04 00:34:00,85.3,57.5,27.20,South,174,0.0,0.0,39,0.00,,---,0.00,VWS V13.01,2013-08-04 07:34:00,
2013-08-04 00:39:00,85.1,58.1,27.20,South,174,0.0,0.0,40,0.00,,---,0.00,VWS V13.01,2013-08-04 07:39:00,
2013-08-04 00:44:00,85.1,58.1,27.20,South,174,0.0,0.0,40,0.00,,---,0.00,VWS V13.01,2013-08-04 07:44:00,
2013-08-04 00:49:00,84.9,57.9,27.20,South,174,0.0,0.0,40,0.00,,---,0.00,VWS V13.01,2013-08-04 07:49:00,
2013-08-04 00:54:00,84.9,57.9,27.20,South,174,0.0,0.0,40,0.00,,---,0.00,VWS V13.01,2013-08-04 07:54:00,
2013-08-04 00:59:00,84.7,57.8,27.20,South,174,0.0,0.0,40,0.00,,---,0.00,VWS V13.01,2013-08-04 07:59:00,
2013-08-04 01:05:00,84.6,58.3,27.17,South,174,0.0,0.0,41,0.00,,---,0.00,VWS V13.01,2013-08-04 08:05:00,
2013-08-04 01:10:00,84.6,58.3,27.17,South,174,0.0,0.0,41,0.00,,---,0.00,VWS V13.01,2013-08-04 08:10:00,
2013-08-04 01:16:00,84.4,58.1,27.17,South,174,0.0,0.0,41,0.00,,---,0.00,VWS V13.01,2013-08-04 08:16:00,
2013-08-04 01:21:00,84.4,58.1,27.17,South,174,0.0,0.0,41,0.00,,---,0.00,VWS V13.01,2013-08-04 08:21:00,
2013-08-04 01:26:00,84.2,57.3,27.17,South,174,0.0,0.0,40,0.00,,---,0.00,VWS V13.01,2013-08-04 08:26:00,
2013-08-04 01:31:00,84.2,57.3,27.17,South,174,0.0,0.0,40,0.00,,---,0.00,VWS V13.01,2013-08-04 08:31:00,
2013-08-04 01:37:00,84.0,57.8,27.17,South,174,0.0,0.0,41,0.00,,---,0.00,VWS V13.01,2013-08-04 08:37:00,
2013-08-04 01:43:00,84.0,57.8,27.17,South,174,0.0,0.0,41,0.00,,---,0.00,VWS V13.01,2013-08-04 08:43:00,
2013-08-04 01:48:00,84.0,57.8,27.17,South,174,0.0,0.0,41,0.00,,---,0.00,VWS V13.01,2013-08-04 08:48:00,
2013-08-04 01:53:00,83.8,57.7,27.17,South,174,0.0,0.0,41,0.00,,---,0.00,VWS V13.01,2013-08-04 08:53:00,
2013-08-04 01:58:00,83.5,57.3,27.17,South,174,0.0,0.0,41,0.00,,---,0.00,VWS V13.01,2013-08-04 08:58:00,
2013-08-04 02:03:00,83.5,57.3,27.17,South,174,0.0,0.0,41,0.00,,---,0.00,VWS V13.01,2013-08-04 09:03:00,
2013-08-04 02:09:00,83.3,57.2,27.17,South,174,0.0,0.0,41,0.00,,---,0.00,VWS V13.01,2013-08-04 09:09:00,
2013-08-04 02:14:00,83.1,57.0,27.17,South,174,0.0,0.0,41,0.00,,---,0.00,VWS V13.01,2013-08-04 09:14:00,
2013-08-04 02:19:00,83.1,57.0,27.17,South,174,0.0,0.0,41,0.00,,---,0.00,VWS V13.01,2013-08-04 09:19:00,
2013-08-04 02:25:00,82.9,57.5,27.17,South,174,0.0,0.0,42,0.00,,---,0.00,VWS V13.01,2013-08-04 09:25:00,
2013-08-04 02:30:00,82.8,57.3,27.17,South,174,0.0,0.0,42,0.00,,---,0.00,VWS V13.01,2013-08-04 09:30:00,
2013-08-04 02:35:00,82.8,57.3,27.17,South,174,0.0,0.0,42,0.00,,---,0.00,VWS V13.01,2013-08-04 09:35:00,
2013-08-04 02:40:00,82.8,56.7,27.17,South,174,0.0,0.0,41,0.00,,---,0.00,VWS V13.01,2013-08-04 09:40:00,
2013-08-04 02:46:00,82.8,57.3,27.17,South,174,0.0,0.0,42,0.00,,---,0.00,VWS V13.01,2013-08-04 09:46:00,
2013-08-04 02:51:00,82.6,57.2,27.17,South,174,0.0,0.0,42,0.00,,---,0.00,VWS V13.01,2013-08-04 09:51:00,
2013-08-04 02:57:00,82.6,57.2,27.17,South,174,0.0,0.0,42,0.00,,---,0.00,VWS V13.01,2013-08-04 09:57:00,
2013-08-04 03:02:00,82.6,57.8,27.17,SSE,149,3.6,3.6,43,0.00,,---,0.00,VWS V13.01,2013-08-04 10:02:00,
2013-08-04 03:07:00,82.6,57.8,27.20,SSE,149,0.0,2.7,43,0.00,,---,0.00,VWS V13.01,2013-08-04 10:07:00,
2013-08-04 03:13:00,82.6,58.5,27.20,SSE,149,0.0,4.0,44,0.00,,---,0.00,VWS V13.01,2013-08-04 10:13:00,
2013-08-04 03:18:00,82.6,58.5,27.20,SSE,149,0.0,0.0,44,0.00,,---,0.00,VWS V13.01,2013-08-04 10:18:00,
2013-08-04 03:23:00,82.4,59.0,27.17,SSE,148,0.0,0.0,45,0.00,,---,0.00,VWS V13.01,2013-08-04 10:23:00,
2013-08-04 03:28:00,82.4,59.0,27.17,SSE,148,0.0,0.0,45,0.00,,---,0.00,VWS V13.01,2013-08-04 10:28:00,
2013-08-04 03:33:00,82.4,59.0,27.17,SSE,149,0.0,0.0,45,0.00,,---,0.00,VWS V13.01,2013-08-04 10:33:00,
2013-08-04 03:39:00,82.4,59.0,27.17,SSE,149,0.0,0.0,45,0.00,,---,0.00,VWS V13.01,2013-08-04 10:39:00,
2013-08-04 03:44:00,82.4,59.0,27.17,SSE,149,0.0,0.0,45,0.00,,---,0.00,VWS V13.01,2013-08-04 10:44:00,
2013-08-04 03:49:00,82.2,59.4,27.17,SSE,148,0.0,0.0,46,0.00,,---,0.00,VWS V13.01,2013-08-04 10:49:00,
2013-08-04 03:54:00,82.2,59.4,27.20,SSE,149,0.0,0.0,46,0.00,,---,0.00,VWS V13.01,2013-08-04 10:54:00,
2013-08-04 04:00:00,82.0,59.2,27.20,SSE,149,0.0,0.0,46,0.00,,---,0.00,VWS V13.01,2013-08-04 11:00:00,
2013-08-04 04:05:00,82.0,59.2,27.20,SSE,148,0.0,0.0,46,0.00,,---,0.00,VWS V13.01,2013-08-04 11:05:00,
2013-08-04 04:10:00,82.0,59.2,27.20,SSE,149,0.0,0.0,46,0.00,,---,0.00,VWS V13.01,2013-08-04 11:10:00,
2013-08-04 04:15:00,82.0,59.2,27.20,SE,141,0.0,2.7,46,0.00,,---,0.00,VWS V13.01,2013-08-04 11:15:00,
2013-08-04 04:20:00,82.0,59.2,27.20,ESE,115,3.1,4.9,46,0.00,,---,0.00,VWS V13.01,2013-08-04 11:20:00,
2013-08-04 04:25:00,82.4,58.3,27.20,East,98,6.3,6.3,44,0.00,,---,0.00,VWS V13.01,2013-08-04 11:25:00,
2013-08-04 04:31:00,82.6,57.8,27.20,ENE,77,3.6,5.8,43,0.00,,---,0.00,VWS V13.01,2013-08-04 11:31:00,
2013-08-04 04:36:00,82.9,57.5,27.20,East,92,3.1,4.9,42,0.00,,---,0.00,VWS V13.01,2013-08-04 11:36:00,
2013-08-04 04:42:00,83.1,57.7,27.20,ESE,115,0.0,5.4,42,0.00,,---,0.00,VWS V13.01,2013-08-04 11:42:00,
2013-08-04 04:47:00,83.1,57.7,27.20,ESE,118,5.4,7.6,42,0.00,,---,0.00,VWS V13.01,2013-08-04 11:47:00,
2013-08-04 04:52:00,82.9,57.5,27.20,ENE,68,0.0,3.6,42,0.00,,---,0.00,VWS V13.01,2013-08-04 11:52:00,
2013-08-04 04:57:00,83.1,57.7,27.20,North,11,0.0,0.0,42,0.00,,---,0.00,VWS V13.01,2013-08-04 11:57:00,
2013-08-04 05:02:00,83.3,57.8,27.20,North,11,0.0,0.0,42,0.00,,---,0.00,VWS V13.01,2013-08-04 12:02:00,
2013-08-04 05:07:00,83.1,57.7,27.20,NNE,14,0.0,0.0,42,0.00,,---,0.00,VWS V13.01,2013-08-04 12:07:00,
2013-08-04 05:12:00,82.9,58.2,27.20,North,354,0.0,4.0,43,0.00,,---,0.00,VWS V13.01,2013-08-04 12:12:00,
2013-08-04 05:18:00,82.8,58.7,27.20,NW,314,0.0,3.1,44,0.00,,---,0.00,VWS V13.01,2013-08-04 12:18:00,
2013-08-04 05:23:00,82.4,59.0,27.20,NW,309,0.0,0.0,45,0.00,,---,0.00,VWS V13.01,2013-08-04 12:23:00,
2013-08-04 05:28:00,82.2,58.8,27.20,SSE,168,5.4,5.8,45,0.00,,---,0.00,VWS V13.01,2013-08-04 12:28:00,
2013-08-04 05:34:00,82.2,58.8,27.20,South,185,5.8,5.8,45,0.00,,---,0.00,VWS V13.01,2013-08-04 12:34:00,
2013-08-04 05:39:00,82.2,58.8,27.20,South,185,0.0,4.9,45,0.00,,---,0.00,VWS V13.01,2013-08-04 12:39:00,
2013-08-04 05:45:00,82.2,58.2,27.20,East,97,4.0,7.6,44,0.00,,---,0.00,VWS V13.01,2013-08-04 12:45:00,
2013-08-04 05:50:00,82.6,57.8,27.23,East,97,0.0,0.0,43,0.00,,---,0.00,VWS V13.01,2013-08-04 12:50:00,
2013-08-04 05:56:00,82.4,58.3,27.23,ESE,105,0.0,0.0,44,0.00,,---,0.00,VWS V13.01,2013-08-04 12:56:00,
2013-08-04 06:01:00,82.4,58.3,27.23,SSE,160,7.6,7.6,44,0.00,,---,0.00,VWS V13.01,2013-08-04 13:01:00,
2013-08-04 06:06:00,82.4,58.3,27.23,SSW,197,8.1,8.3,44,0.00,,---,0.00,VWS V13.01,2013-08-04 13:06:00,
2013-08-04 06:11:00,82.2,58.8,27.23,SW,215,2.7,8.7,45,0.00,,---,0.00,VWS V13.01,2013-08-04 13:11:00,
2013-08-04 06:17:00,82.4,59.0,27.23,South,184,0.0,4.9,45,0.00,,---,0.00,VWS V13.01,2013-08-04 13:17:00,
2013-08-04 06:22:00,82.4,59.0,27.23,South,187,3.1,5.4,45,0.00,,---,0.00,VWS V13.01,2013-08-04 13:22:00,
2013-08-04 06:27:00,82.4,59.0,27.23,SSW,199,5.4,6.7,45,0.00,,---,0.00,VWS V13.01,2013-08-04 13:27:00,
2013-08-04 06:32:00,82.8,59.3,27.23,SSW,192,3.1,4.0,45,0.00,,---,0.00,VWS V13.01,2013-08-04 13:32:00,
2013-08-04 06:37:00,82.9,59.4,27.23,SSW,203,0.0,4.9,45,0.00,,---,0.00,VWS V13.01,2013-08-04 13:37:00,
2013-08-04 06:43:00,83.1,59.6,27.23,ENE,73,2.7,3.6,45,0.00,,---,0.00,VWS V13.01,2013-08-04 13:43:00,
2013-08-04 06:48:00,83.1,59.6,27.23,ENE,71,0.0,0.0,45,0.00,,---,0.00,VWS V13.01,2013-08-04 13:48:00,
2013-08-04 06:53:00,82.9,59.4,27.23,East,79,4.0,5.8,45,0.00,,---,0.00,VWS V13.01,2013-08-04 13:53:00,
2013-08-04 06:58:00,82.8,59.3,27.23,East,85,5.4,5.4,45,0.00,,---,0.00,VWS V13.01,2013-08-04 13:58:00,
2013-08-04 07:03:00,82.8,59.3,27.23,East,97,0.0,3.6,45,0.00,,---,0.00,VWS V13.01,2013-08-04 14:03:00,
2013-08-04 07:08:00,82.8,59.3,27.23,ESE,111,0.0,5.8,45,0.00,,---,0.00,VWS V13.01,2013-08-04 14:08:00,
2013-08-04 07:13:00,82.8,59.3,27.23,East,79,4.0,5.8,45,0.00,,---,0.00,VWS V13.01,2013-08-04 14:13:00,
2013-08-04 07:18:00,82.8,59.9,27.23,East,91,4.0,5.8,46,0.00,,---,0.00,VWS V13.01,2013-08-04 14:18:00,
2013-08-04 07:24:00,82.9,60.0,27.26,ESE,104,4.0,7.2,46,0.00,,---,0.00,VWS V13.01,2013-08-04 14:24:00,
2013-08-04 07:29:00,83.1,60.2,27.26,East,88,3.1,5.4,46,0.00,,---,0.00,VWS V13.01,2013-08-04 14:29:00,
2013-08-04 07:34:00,83.5,59.9,27.26,East,81,0.0,5.8,45,0.00,,---,0.00,VWS V13.01,2013-08-04 14:34:00,
2013-08-04 07:40:00,84.2,60.6,27.26,ENE,76,0.0,3.1,45,0.00,,---,0.00,VWS V13.01,2013-08-04 14:40:00,
2013-08-04 07:45:00,84.7,61.1,27.26,SE,133,4.0,4.9,45,0.00,,---,0.00,VWS V13.01,2013-08-04 14:45:00,
2013-08-04 07:50:00,85.5,61.1,27.26,East,98,5.4,7.6,44,0.00,,---,0.00,VWS V13.01,2013-08-04 14:50:00,
2013-08-04 07:55:00,86.0,61.6,27.26,SE,128,6.3,6.3,44,0.00,,---,0.00,VWS V13.01,2013-08-04 14:55:00,
2013-08-04 08:00:00,86.9,61.7,27.26,SE,130,5.4,6.3,43,0.00,,---,0.00,VWS V13.01,2013-08-04 15:00:00,
2013-08-04 08:05:00,87.3,62.1,27.26,East,98,0.0,6.3,43,0.00,,---,0.00,VWS V13.01,2013-08-04 15:05:00,
2013-08-04 08:10:00,87.4,62.2,27.26,SSE,153,3.1,6.7,43,0.00,,---,0.00,VWS V13.01,2013-08-04 15:10:00,
2013-08-04 08:16:00,87.6,61.7,27.26,ESE,114,2.7,5.8,42,0.00,,---,0.00,VWS V13.01,2013-08-04 15:16:00,
2013-08-04 08:21:00,87.6,62.4,27.26,East,88,0.0,5.4,43,0.00,,---,0.00,VWS V13.01,2013-08-04 15:21:00,
2013-08-04 08:26:00,87.6,62.4,27.26,SE,137,3.6,5.8,43,0.00,,---,0.00,VWS V13.01,2013-08-04 15:26:00,
2013-08-04 08:32:00,87.6,61.7,27.26,SE,141,3.6,5.4,42,0.00,,---,0.00,VWS V13.01,2013-08-04 15:32:00,
2013-08-04 08:37:00,87.8,61.2,27.26,East,101,0.0,6.3,41,0.00,,---,0.00,VWS V13.01,2013-08-04 15:37:00,
2013-08-04 08:42:00,88.0,61.3,27.26,ESE,107,4.9,4.9,41,0.00,,---,0.00,VWS V13.01,2013-08-04 15:42:00,
2013-08-04 08:48:00,88.0,61.3,27.26,SE,133,3.1,4.9,41,0.00,,---,0.00,VWS V13.01,2013-08-04 15:48:00,
2013-08-04 08:53:00,88.0,61.3,27.26,East,89,3.1,4.9,41,0.00,,---,0.00,VWS V13.01,2013-08-04 15:53:00,
2013-08-04 08:58:00,88.2,60.8,27.26,SSE,160,5.8,7.6,40,0.00,,---,0.00,VWS V13.01,2013-08-04 15:58:00,
2013-08-04 09:04:00,88.2,60.8,27.26,SSW,201,6.3,8.3,40,0.00,,---,0.00,VWS V13.01,2013-08-04 16:04:00,
2013-08-04 09:09:00,88.0,60.0,27.26,South,174,3.1,8.1,39,0.00,,---,0.00,VWS V13.01,2013-08-04 16:09:00,
2013-08-04 09:14:00,87.6,60.3,27.26,SW,227,6.3,8.1,40,0.00,,---,0.00,VWS V13.01,2013-08-04 16:14:00,
2013-08-04 09:19:00,87.4,60.2,27.26,WSW,245,3.1,6.3,40,0.00,,---,0.00,VWS V13.01,2013-08-04 16:19:00,
2013-08-04 09:24:00,87.3,60.0,27.26,WNW,299,5.4,6.3,40,0.00,,---,0.00,VWS V13.01,2013-08-04 16:24:00,
2013-08-04 09:30:00,87.3,60.0,27.26,WNW,284,0.0,6.3,40,0.00,,---,0.00,VWS V13.01,2013-08-04 16:30:00,
2013-08-04 09:35:00,87.3,60.0,27.26,West,272,5.8,8.7,40,0.00,,---,0.00,VWS V13.01,2013-08-04 16:35:00,
2013-08-04 09:40:00,87.4,60.2,27.26,SW,220,4.9,7.6,40,0.00,,---,0.00,VWS V13.01,2013-08-04 16:40:00,
2013-08-04 09:45:00,87.6,60.3,27.26,NW,326,0.0,6.7,40,0.00,,---,0.00,VWS V13.01,2013-08-04 16:45:00,
2013-08-04 09:50:00,87.6,60.3,27.26,WNW,297,5.8,5.8,40,0.00,,---,0.00,VWS V13.01,2013-08-04 16:50:00,
2013-08-04 09:56:00,87.8,59.8,27.26,SW,224,8.3,8.3,39,0.00,,---,0.00,VWS V13.01,2013-08-04 16:56:00,
2013-08-04 10:01:00,88.0,59.2,27.26,WNW,291,0.0,6.3,38,0.00,,---,0.00,VWS V13.01,2013-08-04 17:01:00,
2013-08-04 10:06:00,88.2,59.4,27.26,WNW,296,4.0,7.2,38,0.00,,---,0.00,VWS V13.01,2013-08-04 17:06:00,
2013-08-04 10:11:00,88.2,59.4,27.26,WNW,292,2.7,6.3,38,0.00,,---,0.00,VWS V13.01,2013-08-04 17:11:00,
2013-08-04 10:16:00,88.2,59.4,27.26,WNW,282,6.3,6.3,38,0.00,,---,0.00,VWS V13.01,2013-08-04 17:16:00,
2013-08-04 10:22:00,88.2,59.4,27.26,NW,318,5.4,5.4,38,0.00,,---,0.00,VWS V13.01,2013-08-04 17:22:00,
2013-08-04 10:28:00,88.2,59.4,27.26,SSW,213,4.0,4.0,38,0.00,,---,0.00,VWS V13.01,2013-08-04 17:28:00,
2013-08-04 10:33:00,88.2,58.6,27.26,WSW,258,4.9,5.4,37,0.00,,---,0.00,VWS V13.01,2013-08-04 17:33:00,
2013-08-04 10:38:00,88.2,58.6,27.26,West,264,0.0,3.1,37,0.00,,---,0.00,VWS V13.01,2013-08-04 17:38:00,
2013-08-04 10:43:00,88.2,58.6,27.26,WSW,254,0.0,4.0,37,0.00,,---,0.00,VWS V13.01,2013-08-04 17:43:00,
2013-08-04 10:48:00,88.2,58.6,27.26,WSW,255,0.0,0.0,37,0.00,,---,0.00,VWS V13.01,2013-08-04 17:48:00,
2013-08-04 10:53:00,88.2,58.6,27.26,WSW,250,0.0,0.0,37,0.00,,---,0.00,VWS V13.01,2013-08-04 17:53:00,
2013-08-04 10:59:00,88.2,58.6,27.26,WSW,247,0.0,0.0,37,0.00,,---,0.00,VWS V13.01,2013-08-04 17:59:00,
2013-08-04 11:04:00,88.0,58.5,27.26,WSW,247,0.0,0.0,37,0.00,,---,0.00,VWS V13.01,2013-08-04 18:04:00,
2013-08-04 11:10:00,88.0,58.5,27.26,WSW,248,0.0,0.0,37,0.00,,---,0.00,VWS V13.01,2013-08-04 18:10:00,
2013-08-04 11:15:00,88.0,58.5,27.26,WNW,292,0.0,3.1,37,0.00,,---,0.00,VWS V13.01,2013-08-04 18:15:00,
2013-08-04 11:21:00,88.0,58.5,27.23,West,277,0.0,0.0,37,0.00,,---,0.00,VWS V13.01,2013-08-04 18:21:00,
2013-08-04 11:26:00,87.8,58.3,27.23,WSW,237,2.2,3.1,37,0.00,,---,0.00,VWS V13.01,2013-08-04 18:26:00,
2013-08-04 11:31:00,88.0,58.5,27.23,WSW,237,0.0,0.0,37,0.00,,---,0.00,VWS V13.01,2013-08-04 18:31:00,
2013-08-04 11:37:00,87.8,58.3,27.23,WSW,237,0.0,0.0,37,0.00,,---,0.00,VWS V13.01,2013-08-04 18:37:00,
2013-08-04 11:42:00,87.6,58.2,27.23,WSW,237,0.0,0.0,37,0.00,,---,0.00,VWS V13.01,2013-08-04 18:42:00,
2013-08-04 11:47:00,87.8,57.5,27.23,WSW,237,0.0,0.0,36,0.00,,---,0.00,VWS V13.01,2013-08-04 18:47:00,
2013-08-04 11:53:00,88.0,56.9,27.23,WSW,244,0.0,0.0,35,0.00,,---,0.00,VWS V13.01,2013-08-04 18:53:00,
2013-08-04 11:58:00,88.2,57.1,27.23,WSW,245,0.0,0.0,35,0.00,,---,0.00,VWS V13.01,2013-08-04 18:58:00,
2013-08-04 12:03:00,88.3,57.2,27.23,WSW,245,0.0,0.0,35,0.00,,---,0.00,VWS V13.01,2013-08-04 19:03:00,
2013-08-04 12:08:00,88.2,58.6,27.23,WSW,245,0.0,0.0,37,0.00,,---,0.00,VWS V13.01,2013-08-04 19:08:00,
2013-08-04 12:13:00,88.2,58.6,27.23,WSW,245,0.0,0.0,37,0.00,,---,0.00,VWS V13.01,2013-08-04 19:13:00,
2013-08-04 12:18:00,88.3,58.0,27.23,WSW,245,0.0,0.0,36,0.00,,---,0.00,VWS V13.01,2013-08-04 19:18:00,
2013-08-04 12:24:00,88.3,58.0,27.23,WSW,245,0.0,0.0,36,0.00,,---,0.00,VWS V13.01,2013-08-04 19:24:00,
2013-08-04 12:29:00,88.3,59.5,27.23,WSW,248,0.0,0.0,38,0.00,,---,0.00,VWS V13.01,2013-08-04 19:29:00,
2013-08-04 12:34:00,88.5,59.0,27.23,WSW,248,0.0,0.0,37,0.00,,---,0.00,VWS V13.01,2013-08-04 19:34:00,
2013-08-04 12:39:00,88.7,59.1,27.23,WSW,248,0.0,0.0,37,0.00,,---,0.00,VWS V13.01,2013-08-04 19:39:00,
2013-08-04 12:44:00,88.9,58.5,27.23,NE,38,3.6,4.0,36,0.00,,---,0.00,VWS V13.01,2013-08-04 19:44:00,
2013-08-04 12:49:00,89.4,59.0,27.23,NE,35,0.0,2.7,36,0.00,,---,0.00,VWS V13.01,2013-08-04 19:49:00,
2013-08-04 12:55:00,89.8,59.3,27.23,NE,43,0.0,0.0,36,0.00,,---,0.00,VWS V13.01,2013-08-04 19:55:00,
2013-08-04 13:00:00,90.1,59.6,27.23,ENE,59,0.0,0.0,36,0.00,,---,0.00,VWS V13.01,2013-08-04 20:00:00,
2013-08-04 13:05:00,90.7,60.1,27.23,ENE,61,0.0,0.0,36,0.00,,---,0.00,VWS V13.01,2013-08-04 20:05:00,
2013-08-04 13:10:00,90.9,59.5,27.23,South,171,0.0,0.0,35,0.00,,---,0.00,VWS V13.01,2013-08-04 20:10:00,
2013-08-04 13:16:00,91.2,59.8,27.23,South,171,0.0,0.0,35,0.00,,---,0.00,VWS V13.01,2013-08-04 20:16:00,
2013-08-04 13:21:00,91.2,60.6,27.20,South,171,0.0,0.0,36,0.00,,---,0.00,VWS V13.01,2013-08-04 20:21:00,
2013-08-04 13:26:00,91.2,59.0,27.20,South,175,0.0,0.0,34,0.00,,---,0.00,VWS V13.01,2013-08-04 20:26:00,
2013-08-04 13:31:00,91.2,59.0,27.20,South,190,0.0,0.0,34,0.00,,---,0.00,VWS V13.01,2013-08-04 20:31:00,
2013-08-04 13:37:00,90.9,59.5,27.20,South,190,0.0,0.0,35,0.00,,---,0.00,VWS V13.01,2013-08-04 20:37:00,
2013-08-04 13:42:00,90.7,59.3,27.20,South,190,0.0,0.0,35,0.00,,---,0.00,VWS V13.01,2013-08-04 20:42:00,
2013-08-04 13:47:00,90.9,58.6,27.20,South,187,0.0,0.0,34,0.00,,---,0.00,VWS V13.01,2013-08-04 20:47:00,
2013-08-04 13:52:00,90.9,58.6,27.20,South,184,0.0,0.0,34,0.00,,---,0.00,VWS V13.01,2013-08-04 20:52:00,
2013-08-04 13:58:00,90.9,58.6,27.20,South,184,0.0,0.0,34,0.00,,---,0.00,VWS V13.01,2013-08-04 20:58:00,
2013-08-04 14:03:00,90.5,58.3,27.20,South,184,0.0,0.0,34,0.00,,---,0.00,VWS V13.01,2013-08-04 21:03:00,
2013-08-04 14:09:00,90.5,58.3,27.20,South,184,0.0,0.0,34,0.00,,---,0.00,VWS V13.01,2013-08-04 21:09:00,
2013-08-04 14:14:00,90.1,58.0,27.20,South,184,0.0,0.0,34,0.00,,---,0.00,VWS V13.01,2013-08-04 21:14:00,
2013-08-04 14:19:00,90.0,57.9,27.20,South,184,0.0,0.0,34,0.00,,---,0.00,VWS V13.01,2013-08-04 21:19:00,
2013-08-04 14:24:00,90.0,57.9,27.20,South,184,0.0,0.0,34,0.00,,---,0.00,VWS V13.01,2013-08-04 21:24:00,
2013-08-04 14:29:00,90.0,57.9,27.20,South,184,0.0,0.0,34,0.00,,---,0.00,VWS V13.01,2013-08-04 21:29:00,
2013-08-04 14:34:00,90.0,57.9,27.20,South,184,0.0,0.0,34,0.00,,---,0.00,VWS V13.01,2013-08-04 21:34:00,
2013-08-04 14:39:00,89.8,57.7,27.20,South,184,0.0,0.0,34,0.00,,---,0.00,VWS V13.01,2013-08-04 21:39:00,
2013-08-04 14:44:00,89.8,57.7,27.20,South,184,0.0,0.0,34,0.00,,---,0.00,VWS V13.01,2013-08-04 21:44:00,
2013-08-04 14:50:00,89.6,58.3,27.20,South,184,0.0,0.0,35,0.00,,---,0.00,VWS V13.01,2013-08-04 21:50:00,
2013-08-04 14:51:00,89.6,58.3,27.20,South,184,0.0,0.0,35,0.00,,---,0.00,VWS V13.01,2013-08-04 21:51:00,
2013-08-04 14:56:00,89.8,57.7,27.20,South,184,0.0,0.0,34,0.00,,---,0.00,VWS V13.01,2013-08-04 21:56:00,
2013-08-04 15:02:00,89.6,58.3,27.20,South,184,0.0,0.0,35,0.00,,---,0.00,VWS V13.01,2013-08-04 22:02:00,
2013-08-04 15:07:00,89.4,58.2,27.20,South,184,0.0,0.0,35,0.00,,---,0.00,VWS V13.01,2013-08-04 22:07:00,
2013-08-04 15:12:00,89.6,57.5,27.20,South,184,0.0,0.0,34,0.00,,---,0.00,VWS V13.01,2013-08-04 22:12:00,
2013-08-04 15:17:00,89.8,56.9,27.20,South,184,0.0,0.0,33,0.00,,---,0.00,VWS V13.01,2013-08-04 22:17:00,
2013-08-04 15:23:00,90.1,57.2,27.17,South,184,0.0,0.0,33,0.00,,---,0.00,VWS V13.01,2013-08-04 22:23:00,
2013-08-04 15:28:00,90.7,57.7,27.17,South,184,0.0,0.0,33,0.00,,---,0.00,VWS V13.01,2013-08-04 22:28:00,
2013-08-04 15:33:00,91.0,58.0,27.17,South,184,0.0,0.0,33,0.00,,---,0.00,VWS V13.01,2013-08-04 22:33:00,
2013-08-04 15:39:00,91.2,58.1,27.17,South,184,0.0,0.0,33,0.00,,---,0.00,VWS V13.01,2013-08-04 22:39:00,
2013-08-04 15:44:00,91.2,57.3,27.17,South,184,0.0,0.0,32,0.00,,---,0.00,VWS V13.01,2013-08-04 22:44:00,
2013-08-04 15:49:00,91.8,56.9,27.17,NNE,24,0.0,4.0,31,0.00,,---,0.00,VWS V13.01,2013-08-04 22:49:00,
2013-08-04 15:55:00,91.9,57.9,27.17,NE,42,0.0,0.0,32,0.00,,---,0.00,VWS V13.01,2013-08-04 22:55:00,
2013-08-04 16:00:00,91.9,57.9,27.17,ENE,61,0.0,3.6,32,0.00,,---,0.00,VWS V13.01,2013-08-04 23:00:00,
2013-08-04 16:05:00,92.1,58.0,27.17,NNE,29,0.0,0.0,32,0.00,,---,0.00,VWS V13.01,2013-08-04 23:05:00,
2013-08-04 16:11:00,92.3,57.3,27.17,NNE,23,0.0,0.0,31,0.00,,---,0.00,VWS V13.01,2013-08-04 23:11:00,
2013-08-04 16:16:00,92.3,57.3,27.17,NNE,15,0.0,0.0,31,0.00,,---,0.00,VWS V13.01,2013-08-04 23:16:00,
2013-08-04 16:21:00,92.3,57.3,27.17,North,11,0.0,4.0,31,0.00,,---,0.00,VWS V13.01,2013-08-04 23:21:00,
2013-08-04 16:26:00,92.3,57.3,27.17,NNE,17,0.0,0.0,31,0.00,,---,0.00,VWS V13.01,2013-08-04 23:26:00,
2013-08-04 16:32:00,92.3,57.3,27.17,NNE,18,0.0,0.0,31,0.00,,---,0.00,VWS V13.01,2013-08-04 23:32:00,
2013-08-04 16:37:00,91.9,57.0,27.17,NNE,17,0.0,0.0,31,0.00,,---,0.00,VWS V13.01,2013-08-04 23:37:00,
2013-08-04 16:43:00,91.8,56.9,27.17,NNE,17,0.0,0.0,31,0.00,,---,0.00,VWS V13.01,2013-08-04 23:43:00,
2013-08-04 16:48:00,91.9,57.0,27.17,NNE,16,0.0,0.0,31,0.00,,---,0.00,VWS V13.01,2013-08-04 23:48:00,
2013-08-04 16:53:00,92.3,57.3,27.17,NNE,17,0.0,0.0,31,0.00,,---,0.00,VWS V13.01,2013-08-04 23:53:00,
2013-08-04 16:58:00,92.7,56.7,27.17,NNE,18,0.0,0.0,30,0.00,,---,0.00,VWS V13.01,2013-08-04 23:58:00,
2013-08-04 17:03:00,93.0,57.9,27.17,NNE,18,0.0,0.0,31,0.00,,---,0.00,VWS V13.01,2013-08-05 00:03:00,
2013-08-04 17:08:00,93.4,57.3,27.17,NNE,14,0.0,0.0,30,0.00,,---,0.00,VWS V13.01,2013-08-05 00:08:00,
2013-08-04 17:14:00,94.1,58.0,27.17,NW,311,0.0,0.0,30,0.00,,---,0.00,VWS V13.01,2013-08-05 00:14:00,
2013-08-04 17:19:00,94.5,58.3,27.17,NW,311,0.0,0.0,30,0.00,,---,0.00,VWS V13.01,2013-08-05 00:19:00,
2013-08-04 17:24:00,94.8,58.6,27.14,WNW,300,0.0,0.0,30,0.00,,---,0.00,VWS V13.01,2013-08-05 00:24:00,
2013-08-04 17:29:00,95.2,57.9,27.14,West,274,0.0,4.0,29,0.00,,---,0.00,VWS V13.01,2013-08-05 00:29:00,
2013-08-04 17:35:00,95.4,58.1,27.14,West,273,0.0,0.0,29,0.00,,---,0.00,VWS V13.01,2013-08-05 00:35:00,
2013-08-04 17:40:00,95.4,58.1,27.14,WNW,285,0.0,4.0,29,0.00,,---,0.00,VWS V13.01,2013-08-05 00:40:00,
2013-08-04 17:45:00,94.8,57.6,27.14,West,281,0.0,0.0,29,0.00,,---,0.00,VWS V13.01,2013-08-05 00:45:00,
2013-08-04 17:50:00,94.6,57.5,27.14,WSW,249,0.0,5.8,29,0.00,,---,0.00,VWS V13.01,2013-08-05 00:50:00,
2013-08-04 17:56:00,94.5,57.3,27.14,WSW,255,4.0,4.0,29,0.00,,---,0.00,VWS V13.01,2013-08-05 00:56:00,
2013-08-04 18:01:00,94.3,57.2,27.14,WSW,244,0.0,0.0,29,0.00,,---,0.00,VWS V13.01,2013-08-05 01:01:00,
2013-08-04 18:06:00,93.9,56.9,27.14,WSW,242,0.0,4.9,29,0.00,,---,0.00,VWS V13.01,2013-08-05 01:06:00,
2013-08-04 18:11:00,93.7,56.7,27.14,WSW,250,0.0,0.0,29,0.00,,---,0.00,VWS V13.01,2013-08-05 01:11:00,
2013-08-04 18:17:00,93.4,56.4,27.14,SW,223,0.0,4.0,29,0.00,,---,0.00,VWS V13.01,2013-08-05 01:17:00,
2013-08-04 18:22:00,93.2,56.2,27.14,SW,223,0.0,0.0,29,0.00,,---,0.00,VWS V13.01,2013-08-05 01:22:00,
2013-08-04 18:27:00,93.0,57.0,27.14,SW,223,0.0,0.0,30,0.00,,---,0.00,VWS V13.01,2013-08-05 01:27:00,
2013-08-04 18:32:00,92.7,56.7,27.14,West,273,4.9,7.6,30,0.00,,---,0.00,VWS V13.01,2013-08-05 01:32:00,
2013-08-04 18:37:00,92.3,56.4,27.14,WSW,238,0.0,6.3,30,0.00,,---,0.00,VWS V13.01,2013-08-05 01:37:00,
2013-08-04 18:42:00,91.8,56.9,27.14,SW,228,4.0,5.8,31,0.00,,---,0.00,VWS V13.01,2013-08-05 01:42:00,
2013-08-04 18:47:00,91.6,56.7,27.14,SSW,208,0.0,5.8,31,0.00,,---,0.00,VWS V13.01,2013-08-05 01:47:00,
2013-08-04 18:52:00,91.2,56.4,27.14,SW,233,0.0,6.3,31,0.00,,---,0.00,VWS V13.01,2013-08-05 01:52:00,
2013-08-04 18:58:00,90.9,56.1,27.14,WSW,237,3.6,5.8,31,0.00,,---,0.00,VWS V13.01,2013-08-05 01:58:00,
2013-08-04 19:03:00,90.7,56.8,27.14,WSW,244,0.0,3.1,32,0.00,,---,0.00,VWS V13.01,2013-08-05 02:03:00,
2013-08-04 19:08:00,90.3,56.5,27.14,West,268,0.0,0.0,32,0.00,,---,0.00,VWS V13.01,2013-08-05 02:08:00,
2013-08-04 19:13:00,90.1,56.3,27.14,WSW,254,2.7,4.0,32,0.00,,---,0.00,VWS V13.01,2013-08-05 02:13:00,
2013-08-04 19:19:00,89.8,56.0,27.14,WSW,255,4.0,4.0,32,0.00,,---,0.00,VWS V13.01,2013-08-05 02:19:00,
2013-08-04 19:24:00,89.6,55.9,27.14,WSW,255,0.0,0.0,32,0.00,,---,0.00,VWS V13.01,2013-08-05 02:24:00,
2013-08-04 19:30:00,89.2,56.4,27.14,WSW,250,0.0,0.0,33,0.00,,---,0.00,VWS V13.01,2013-08-05 02:30:00,
2013-08-04 19:35:00,88.9,56.1,27.17,WSW,248,0.0,0.0,33,0.00,,---,0.00,VWS V13.01,2013-08-05 02:35:00,
2013-08-04 19:41:00,88.7,55.9,27.17,WSW,248,0.0,0.0,33,0.00,,---,0.00,VWS V13.01,2013-08-05 02:41:00,
2013-08-04 19:46:00,88.3,55.6,27.17,WSW,248,0.0,0.0,33,0.00,,---,0.00,VWS V13.01,2013-08-05 02:46:00,
2013-08-04 19:51:00,88.2,56.3,27.17,WSW,248,0.0,0.0,34,0.00,,---,0.00,VWS V13.01,2013-08-05 02:51:00,
2013-08-04 19:56:00,88.0,56.1,27.17,WSW,245,0.0,0.0,34,0.00,,---,0.00,VWS V13.01,2013-08-05 02:56:00,
2013-08-04 20:02:00,87.6,55.8,27.17,SSE,150,4.0,5.8,34,0.00,,---,0.00,VWS V13.01,2013-08-05 03:02:00,
2013-08-04 20:07:00,87.3,55.5,27.17,SSE,153,0.0,3.6,34,0.00,,---,0.00,VWS V13.01,2013-08-05 03:07:00,
2013-08-04 20:12:00,87.1,55.3,27.17,SSE,149,0.0,0.0,34,0.00,,---,0.00,VWS V13.01,2013-08-05 03:12:00,
2013-08-04 20:17:00,86.7,55.0,27.17,SSE,150,0.0,4.0,34,0.00,,---,0.00,VWS V13.01,2013-08-05 03:17:00,
2013-08-04 20:22:00,86.4,54.7,27.17,SE,146,0.0,0.0,34,0.00,,---,0.00,VWS V13.01,2013-08-05 03:22:00,
2013-08-04 20:27:00,86.2,54.5,27.17,SE,145,0.0,0.0,34,0.00,,---,0.00,VWS V13.01,2013-08-05 03:27:00,
2013-08-04 20:33:00,86.0,55.2,27.17,SE,145,0.0,0.0,35,0.00,,---,0.00,VWS V13.01,2013-08-05 03:33:00,
2013-08-04 20:38:00,85.6,54.9,27.17,SE,145,0.0,0.0,35,0.00,,---,0.00,VWS V13.01,2013-08-05 03:38:00,
2013-08-04 20:43:00,85.3,54.6,27.17,SE,145,0.0,0.0,35,0.00,,---,0.00,VWS V13.01,2013-08-05 03:43:00,
2013-08-04 20:48:00,85.1,54.4,27.17,SE,145,0.0,0.0,35,0.00,,---,0.00,VWS V13.01,2013-08-05 03:48:00,
2013-08-04 20:53:00,84.9,54.2,27.17,SE,145,0.0,0.0,35,0.00,,---,0.00,VWS V13.01,2013-08-05 03:53:00,
2013-08-04 20:58:00,84.7,54.9,27.17,SE,145,0.0,0.0,36,0.00,,---,0.00,VWS V13.01,2013-08-05 03:58:00,
2013-08-04 21:01:00,84.6,54.7,27.17,SE,145,0.0,0.0,36,0.00,,---,0.00,VWS V13.01,2013-08-05 04:01:00,
2013-08-04 21:02:00,84.6,54.7,27.17,SE,145,0.0,0.0,36,0.00,,---,0.00,VWS V13.01,2013-08-05 04:02:00,
2013-08-04 21:04:00,84.6,54.7,27.17,SE,145,0.0,0.0,36,0.00,,---,0.00,VWS V13.01,2013-08-05 04:04:00,
2013-08-04 21:07:00,84.4,54.5,27.17,SE,145,0.0,0.0,36,0.00,,---,0.00,VWS V13.01,2013-08-05 04:07:00,
2013-08-04 21:12:00,84.2,54.4,27.17,SE,145,0.0,0.0,36,0.00,,---,0.00,VWS V13.01,2013-08-05 04:12:00,
2013-08-04 21:17:00,84.0,55.0,27.17,SE,145,0.0,0.0,37,0.00,,---,0.00,VWS V13.01,2013-08-05 04:17:00,
2013-08-04 21:22:00,83.8,54.8,27.17,SE,145,0.0,0.0,37,0.00,,---,0.00,VWS V13.01,2013-08-05 04:22:00,
2013-08-04 21:27:00,83.8,54.8,27.17,SE,145,0.0,0.0,37,0.00,,---,0.00,VWS V13.01,2013-08-05 04:27:00,
2013-08-04 21:32:00,83.8,54.8,27.17,SE,145,0.0,0.0,37,0.00,,---,0.00,VWS V13.01,2013-08-05 04:32:00,
2013-08-04 21:38:00,83.8,54.8,27.17,SE,145,0.0,0.0,37,0.00,,---,0.00,VWS V13.01,2013-08-05 04:38:00,
2013-08-04 21:43:00,83.7,54.7,27.17,SE,145,0.0,0.0,37,0.00,,---,0.00,VWS V13.01,2013-08-05 04:43:00,
2013-08-04 21:48:00,83.7,54.7,27.17,SE,145,0.0,0.0,37,0.00,,---,0.00,VWS V13.01,2013-08-05 04:48:00,
2013-08-04 21:53:00,83.5,54.5,27.17,SE,145,0.0,0.0,37,0.00,,---,0.00,VWS V13.01,2013-08-05 04:53:00,
2013-08-04 21:58:00,83.3,55.1,27.17,SE,145,0.0,0.0,38,0.00,,---,0.00,VWS V13.01,2013-08-05 04:58:00,
2013-08-04 22:04:00,83.3,55.1,27.17,SE,145,0.0,0.0,38,0.00,,---,0.00,VWS V13.01,2013-08-05 05:04:00,
2013-08-04 22:09:00,83.1,54.9,27.20,SE,145,0.0,0.0,38,0.00,,---,0.00,VWS V13.01,2013-08-05 05:09:00,
2013-08-04 22:14:00,83.1,54.9,27.20,SE,145,0.0,0.0,38,0.00,,---,0.00,VWS V13.01,2013-08-05 05:14:00,
2013-08-04 22:20:00,82.9,54.8,27.20,SE,145,0.0,0.0,38,0.00,,---,0.00,VWS V13.01,2013-08-05 05:20:00,
2013-08-04 22:25:00,82.9,54.8,27.20,SE,145,0.0,0.0,38,0.00,,---,0.00,VWS V13.01,2013-08-05 05:25:00,
2013-08-04 22:30:00,82.6,54.4,27.20,SE,145,0.0,0.0,38,0.00,,---,0.00,VWS V13.01,2013-08-05 05:30:00,
2013-08-04 22:35:00,82.4,55.0,27.20,SE,145,0.0,0.0,39,0.00,,---,0.00,VWS V13.01,2013-08-05 05:35:00,
2013-08-04 22:40:00,82.0,54.7,27.20,SE,145,0.0,0.0,39,0.00,,---,0.00,VWS V13.01,2013-08-05 05:40:00,
2013-08-04 22:46:00,81.9,54.5,27.20,SE,146,0.0,0.0,39,0.00,,---,0.00,VWS V13.01,2013-08-05 05:46:00,
2013-08-04 22:51:00,81.9,54.5,27.17,SE,146,0.0,0.0,39,0.00,,---,0.00,VWS V13.01,2013-08-05 05:51:00,
2013-08-04 22:56:00,81.5,54.9,27.17,SE,146,0.0,0.0,40,0.00,,---,0.00,VWS V13.01,2013-08-05 05:56:00,
2013-08-04 23:01:00,81.5,54.9,27.17,SSE,147,0.0,0.0,40,0.00,,---,0.00,VWS V13.01,2013-08-05 06:01:00,
2013-08-04 23:07:00,81.3,54.7,27.17,SSE,147,0.0,0.0,40,0.00,,---,0.00,VWS V13.01,2013-08-05 06:07:00,
2013-08-04 23:12:00,81.1,54.5,27.17,SSE,147,0.0,0.0,40,0.00,,---,0.00,VWS V13.01,2013-08-05 06:12:00,
2013-08-04 23:17:00,81.0,54.4,27.17,SSE,147,0.0,0.0,40,0.00,,---,0.00,VWS V13.01,2013-08-05 06:17:00,
2013-08-04 23:22:00,80.6,54.1,27.17,SSE,147,0.0,0.0,40,0.00,,---,0.00,VWS V13.01,2013-08-05 06:22:00,
2013-08-04 23:27:00,80.4,54.6,27.17,SSE,147,0.0,0.0,41,0.00,,---,0.00,VWS V13.01,2013-08-05 06:27:00,
2013-08-04 23:32:00,80.4,54.6,27.17,SSE,147,0.0,0.0,41,0.00,,---,0.00,VWS V13.01,2013-08-05 06:32:00,
2013-08-04 23:38:00,80.2,54.4,27.17,SSE,147,0.0,0.0,41,0.00,,---,0.00,VWS V13.01,2013-08-05 06:38:00,
2013-08-04 23:43:00,79.9,54.1,27.17,SSE,147,0.0,0.0,41,0.00,,---,0.00,VWS V13.01,2013-08-05 06:43:00,
2013-08-04 23:48:00,79.7,53.9,27.17,SSE,147,0.0,0.0,41,0.00,,---,0.00,VWS V13.01,2013-08-05 06:48:00,
2013-08-04 23:53:00,79.7,53.9,27.17,SSE,147,0.0,0.0,41,0.00,,---,0.00,VWS V13.01,2013-08-05 06:53:00,
2013-08-04 23:59:00,79.5,54.4,27.17,SSE,147,0.0,0.0,42,0.00,,---,0.00,VWS V13.01,2013-08-05 06:59:00,